createdAt,value
2024-05-09T00:00:57.191Z,98460.72
2024-05-09T00:03:26.708Z,98462.06
2024-05-09T00:05:59.126Z,98455.31
2024-05-09T00:08:28.890Z,98453.16
2024-05-09T00:10:58.563Z,98459.34
2024-05-09T00:13:28.170Z,98467.47
2024-05-09T00:15:59.677Z,98458.56
2024-05-09T00:18:29.237Z,98463.97
2024-05-09T00:21:04.069Z,98461.28
2024-05-09T00:23:33.670Z,98457.75
2024-05-09T00:26:03.331Z,98458.56
2024-05-09T00:28:32.852Z,98459.63
2024-05-09T00:31:02.840Z,98456.91
2024-05-09T00:33:32.375Z,98462.34
2024-05-09T00:36:05.179Z,98455.31
2024-05-09T00:38:34.874Z,98460.72
2024-05-09T00:41:04.752Z,98456.41
2024-05-09T00:43:34.229Z,98455.31
2024-05-09T00:46:04.159Z,98456.41
2024-05-09T00:48:35.418Z,98453.69
2024-05-09T00:51:08.004Z,98451.81
2024-05-09T00:53:37.776Z,98452.88
2024-05-09T00:56:08.909Z,98452.06
2024-05-09T00:58:39.337Z,98453.16
2024-05-09T01:01:09.421Z,98453.72
2024-05-09T01:03:39.311Z,98450.44
2024-05-09T01:06:12.134Z,98443.41
2024-05-09T01:08:41.818Z,98445.00
2024-05-09T01:11:11.481Z,98453.16
2024-05-09T01:13:41.128Z,98449.09
2024-05-09T01:16:11.721Z,98454.25
2024-05-09T01:18:41.461Z,98445.28
2024-05-09T01:21:14.065Z,98448.81
2024-05-09T01:23:46.431Z,98456.94
2024-05-09T01:26:16.141Z,98451.00
2024-05-09T01:28:45.664Z,98451.00
2024-05-09T01:31:16.095Z,98452.06
2024-05-09T01:33:45.713Z,98447.47
2024-05-09T01:36:15.325Z,98449.38
2024-05-09T01:38:47.505Z,98443.16
2024-05-09T01:41:16.968Z,98443.94
2024-05-09T01:43:46.653Z,98445.03
2024-05-09T01:46:16.794Z,98436.91
2024-05-09T01:48:46.729Z,98440.72
2024-05-09T01:51:16.639Z,98438.00
2024-05-09T01:53:48.884Z,98442.34
2024-05-09T01:56:18.356Z,98435.31
2024-05-09T01:58:47.846Z,98429.88
2024-05-09T02:01:17.484Z,98431.78
2024-05-09T02:03:47.891Z,98429.34
2024-05-09T02:06:17.586Z,98427.72
2024-05-09T02:08:49.743Z,98428.28
2024-05-09T02:11:19.291Z,98432.03
2024-05-09T02:13:48.842Z,98430.44
2024-05-09T02:16:18.317Z,98430.44
2024-05-09T02:18:47.818Z,98430.44
2024-05-09T02:21:17.386Z,98441.25
2024-05-09T02:23:49.518Z,98434.22
2024-05-09T02:26:19.030Z,98436.94
2024-05-09T02:28:48.601Z,98435.28
2024-05-09T02:31:18.248Z,98439.66
2024-05-09T02:33:48.001Z,98443.41
2024-05-09T02:36:17.979Z,98437.22
2024-05-09T02:38:50.051Z,98438.00
2024-05-09T02:41:19.556Z,98448.03
2024-05-09T02:43:49.042Z,98437.47
2024-05-09T02:46:18.617Z,98445.06
2024-05-09T02:48:48.164Z,98441.81
2024-05-09T02:51:17.746Z,98434.78
2024-05-09T02:53:49.862Z,98436.38
2024-05-09T02:56:19.384Z,98438.00
2024-05-09T02:58:48.845Z,98439.09
2024-05-09T03:01:18.381Z,98445.06
2024-05-09T03:03:50.426Z,98438.56
2024-05-09T03:06:20.150Z,98442.09
2024-05-09T03:08:52.315Z,98445.59
2024-05-09T03:11:22.277Z,98446.13
2024-05-09T03:13:52.163Z,98436.13
2024-05-09T03:16:21.699Z,98446.13
2024-05-09T03:18:51.270Z,98449.63
2024-05-09T03:21:20.968Z,98446.69
2024-05-09T03:23:53.155Z,98449.94
2024-05-09T03:26:22.672Z,98451.56
2024-05-09T03:28:52.223Z,98443.44
2024-05-09T03:31:21.649Z,98436.41
2024-05-09T03:33:51.416Z,98442.59
2024-05-09T03:36:20.957Z,98449.94
2024-05-09T03:38:53.153Z,98444.53
2024-05-09T03:41:23.411Z,98444.53
2024-05-09T03:43:53.031Z,98442.88
2024-05-09T03:46:22.509Z,98442.88
2024-05-09T03:48:52.098Z,98437.47
2024-05-09T03:51:21.653Z,98441.25
2024-05-09T03:53:53.798Z,98436.66
2024-05-09T03:56:23.511Z,98445.59
2024-05-09T03:58:52.968Z,98448.56
2024-05-09T04:01:23.033Z,98447.78
2024-05-09T04:03:52.698Z,98445.84
2024-05-09T04:06:23.572Z,98445.84
2024-05-09T04:08:55.668Z,98449.38
2024-05-09T04:11:25.179Z,98447.78
2024-05-09T04:13:54.692Z,98453.97
2024-05-09T04:16:24.104Z,98451.28
2024-05-09T04:18:53.726Z,98454.81
2024-05-09T04:21:23.169Z,98459.41
2024-05-09T04:23:55.281Z,98460.50
2024-05-09T04:26:24.766Z,98461.31
2024-05-09T04:28:54.239Z,98461.31
2024-05-09T04:31:23.708Z,98464.03
2024-05-09T04:33:53.267Z,98453.47
2024-05-09T04:36:22.960Z,98465.09
2024-05-09T04:38:52.426Z,98458.88
2024-05-09T04:41:24.607Z,98468.09
2024-05-09T04:43:54.309Z,98463.47
2024-05-09T04:46:23.747Z,98464.56
2024-05-09T04:48:54.194Z,98459.16
2024-05-09T04:51:23.777Z,98450.19
2024-05-09T04:53:53.263Z,98445.63
2024-05-09T04:56:25.480Z,98455.06
2024-05-09T04:58:55.019Z,98447.50
2024-05-09T05:01:24.557Z,98451.53
2024-05-09T05:03:55.866Z,98454.56
2024-05-09T05:06:26.869Z,98450.47
2024-05-09T05:08:56.400Z,98457.81
2024-05-09T05:11:28.585Z,98445.09
2024-05-09T05:13:58.150Z,98451.59
2024-05-09T05:16:27.646Z,98452.66
2024-05-09T05:18:57.204Z,98442.38
2024-05-09T05:21:26.916Z,98449.41
2024-05-09T05:23:56.632Z,98452.13
2024-05-09T05:26:28.849Z,98454.56
2024-05-09T05:28:58.403Z,98449.66
2024-05-09T05:31:27.936Z,98451.47
2024-05-09T05:33:57.512Z,98452.53
2024-05-09T05:36:27.039Z,98450.31
2024-05-09T05:38:57.252Z,98451.38
2024-05-09T05:41:29.419Z,98455.16
2024-05-09T05:43:58.964Z,98449.69
2024-05-09T05:46:28.450Z,98454.03
2024-05-09T05:48:58.067Z,98452.41
2024-05-09T05:51:27.560Z,98443.50
2024-05-09T05:53:57.014Z,98457.88
2024-05-09T05:56:29.379Z,98459.44
2024-05-09T05:58:58.882Z,98457.22
2024-05-09T06:01:28.411Z,98450.13
2024-05-09T06:03:58.115Z,98451.91
2024-05-09T06:06:28.801Z,98458.44
2024-05-09T06:08:58.339Z,98450.78
2024-05-09T06:11:30.479Z,98453.78
2024-05-09T06:14:01.451Z,98454.59
2024-05-09T06:16:31.110Z,98452.16
2024-05-09T06:19:00.736Z,98451.13
2024-05-09T06:21:30.462Z,98445.69
2024-05-09T06:24:00.420Z,98440.56
2024-05-09T06:26:33.451Z,98445.97
2024-05-09T06:29:03.036Z,98443.59
2024-05-09T06:31:32.644Z,98452.59
2024-05-09T06:34:02.366Z,98450.47
2024-05-09T06:36:31.990Z,98452.16
2024-05-09T06:39:01.560Z,98442.19
2024-05-09T06:41:33.702Z,98436.50
2024-05-09T06:44:03.237Z,98440.03
2024-05-09T06:46:32.671Z,98439.47
2024-05-09T06:49:08.378Z,98442.50
2024-05-09T06:51:38.314Z,98442.78
2024-05-09T06:54:08.588Z,98437.88
2024-05-09T06:56:40.747Z,98444.91
2024-05-09T06:59:10.579Z,98450.88
2024-05-09T07:01:40.360Z,98451.91
2024-05-09T07:04:10.043Z,98442.38
2024-05-09T07:06:39.612Z,98451.03
2024-05-09T07:09:12.011Z,98450.19
2024-05-09T07:11:44.222Z,98448.78
2024-05-09T07:14:13.883Z,98440.38
2024-05-09T07:16:43.322Z,98439.50
2024-05-09T07:19:12.948Z,98441.38
2024-05-09T07:21:42.546Z,98448.97
2024-05-09T07:24:12.005Z,98444.09
2024-05-09T07:26:44.248Z,98443.00
2024-05-09T07:29:13.696Z,98448.47
2024-05-09T07:31:43.249Z,98446.31
2024-05-09T07:34:13.504Z,98442.00
2024-05-09T07:36:43.179Z,98444.75
2024-05-09T07:39:12.623Z,98449.66
2024-05-09T07:41:44.876Z,98444.78
2024-05-09T07:44:14.424Z,98430.16
2024-05-09T07:47:48.460Z,98438.03
2024-05-09T07:54:39.327Z,98438.28
2024-05-09T07:57:11.737Z,98428.56
2024-05-09T07:59:41.264Z,98435.59
2024-05-09T08:02:11.105Z,98428.56
2024-05-09T08:04:44.258Z,98420.69
2024-05-09T08:07:13.857Z,98409.03
2024-05-09T08:09:43.406Z,98420.41
2024-05-09T08:12:16.288Z,98410.41
2024-05-09T08:14:45.954Z,98418.53
2024-05-09T08:17:15.549Z,98405.78
2024-05-09T08:19:45.215Z,98405.25
2024-05-09T08:22:15.033Z,98413.66
2024-05-09T08:24:45.768Z,98413.44
2024-05-09T08:27:17.967Z,98408.53
2024-05-09T08:29:47.608Z,98412.31
2024-05-09T08:32:17.377Z,98415.03
2024-05-09T08:34:47.224Z,98410.72
2024-05-09T08:37:22.359Z,98411.22
2024-05-09T08:39:54.347Z,98413.16
2024-05-09T08:42:27.660Z,98413.94
2024-05-09T08:44:57.301Z,98407.72
2024-05-09T08:47:29.179Z,98397.94
2024-05-09T08:50:00.934Z,98405.28
2024-05-09T08:52:30.612Z,98407.47
2024-05-09T08:55:00.549Z,98409.06
2024-05-09T08:57:35.632Z,98399.28
2024-05-09T09:00:10.315Z,98398.47
2024-05-09T09:02:45.152Z,98392.19
2024-05-09T09:05:17.322Z,98397.63
2024-05-09T09:07:51.563Z,98393.00
2024-05-09T09:10:29.724Z,98397.06
2024-05-09T09:13:07.222Z,98396.25
2024-05-09T09:15:47.369Z,98396.47
2024-05-09T09:18:18.268Z,98398.13
2024-05-09T09:20:48.117Z,98397.84
2024-05-09T09:23:17.738Z,98395.66
2024-05-09T09:25:47.469Z,98395.38
2024-05-09T09:28:23.333Z,98391.56
2024-05-09T09:30:53.025Z,98396.41
2024-05-09T09:33:22.760Z,98398.03
2024-05-09T09:35:52.477Z,98396.69
2024-05-09T09:38:23.576Z,98400.19
2024-05-09T09:40:53.249Z,98400.19
2024-05-09T09:43:26.845Z,98392.06
2024-05-09T09:45:59.967Z,98395.59
2024-05-09T09:48:31.394Z,98388.81
2024-05-09T09:51:01.616Z,98389.13
2024-05-09T09:53:33.392Z,98386.72
2024-05-09T09:56:04.423Z,98394.31
2024-05-09T09:58:38.926Z,98393.22
2024-05-09T10:01:08.786Z,98390.50
2024-05-09T10:03:38.791Z,98395.94
2024-05-09T10:06:10.861Z,98385.63
2024-05-09T10:08:40.939Z,98392.16
2024-05-09T10:11:10.515Z,98391.66
2024-05-09T10:13:44.240Z,98394.34
2024-05-09T10:16:22.203Z,98393.25
2024-05-09T10:18:52.001Z,98391.66
2024-05-09T10:21:23.390Z,98388.66
2024-05-09T10:24:01.962Z,98389.44
2024-05-09T10:26:35.537Z,98386.22
2024-05-09T10:29:14.570Z,98385.63
2024-05-09T10:31:45.896Z,98390.25
2024-05-09T10:34:19.703Z,98381.56
2024-05-09T10:36:52.316Z,98383.47
2024-05-09T10:39:22.220Z,98374.22
2024-05-09T10:41:51.770Z,98386.19
2024-05-09T10:44:23.964Z,98377.50
2024-05-09T10:46:54.893Z,98375.31
2024-05-09T10:49:24.774Z,98375.88
2024-05-09T10:51:54.493Z,98380.47
2024-05-09T10:54:24.027Z,98368.25
2024-05-09T10:56:57.708Z,98365.31
2024-05-09T10:59:35.967Z,98365.03
2024-05-09T11:02:10.039Z,98365.03
2024-05-09T11:04:40.585Z,98361.50
2024-05-09T11:07:12.855Z,98361.78
2024-05-09T11:09:43.331Z,98357.97
2024-05-09T11:12:13.091Z,98361.78
2024-05-09T11:14:55.035Z,98361.78
2024-05-09T11:17:24.630Z,98360.94
2024-05-09T11:19:54.266Z,98353.63
2024-05-09T11:22:25.235Z,98350.91
2024-05-09T11:24:55.355Z,98346.06
2024-05-09T11:27:24.985Z,98339.84
2024-05-09T11:29:58.683Z,98340.63
2024-05-09T11:32:29.638Z,98351.47
2024-05-09T11:34:59.436Z,98344.44
2024-05-09T11:37:31.829Z,98344.16
2024-05-09T11:40:03.400Z,98331.41
2024-05-09T11:42:33.966Z,98332.22
2024-05-09T11:45:06.707Z,98331.41
2024-05-09T11:47:36.359Z,98329.00
2024-05-09T11:50:08.218Z,98316.22
2024-05-09T11:52:40.971Z,98324.38
2024-05-09T11:55:11.150Z,98316.22
2024-05-09T11:57:40.843Z,98323.84
2024-05-09T12:00:18.244Z,98322.75
2024-05-09T12:02:56.246Z,98318.44
2024-05-09T12:05:26.062Z,98328.19
2024-05-09T12:07:56.500Z,98316.78
2024-05-09T12:10:32.440Z,98317.66
2024-05-09T12:13:06.683Z,98305.22
2024-05-09T12:15:39.750Z,98311.97
2024-05-09T12:18:09.488Z,98322.53
2024-05-09T12:20:40.196Z,98307.03
2024-05-09T12:23:10.697Z,98315.13
2024-05-09T12:25:40.663Z,98307.75
2024-05-09T12:30:42.590Z,98304.75
2024-05-09T12:33:13.499Z,98309.84
2024-05-09T12:35:45.708Z,98300.88
2024-05-09T12:38:17.917Z,98308.59
2024-05-09T12:40:47.551Z,98303.94
2024-05-09T12:43:17.616Z,98290.81
2024-05-09T12:45:49.945Z,98297.06
2024-05-09T12:48:19.623Z,98302.50
2024-05-09T12:50:49.378Z,98295.16
2024-05-09T12:53:19.027Z,98297.63
2024-05-09T12:55:56.266Z,98294.41
2024-05-09T12:58:29.321Z,98299.06
2024-05-09T13:01:01.551Z,98289.03
2024-05-09T13:03:31.457Z,98288.53
2024-05-09T13:06:01.390Z,98286.38
2024-05-09T13:08:30.920Z,98285.34
2024-05-09T13:11:00.654Z,98281.59
2024-05-09T13:13:30.206Z,98289.47
2024-05-09T13:16:02.440Z,98279.19
2024-05-09T13:18:33.459Z,98280.34
2024-05-09T13:21:03.114Z,98270.56
2024-05-09T13:23:32.630Z,98270.06
2024-05-09T13:26:02.180Z,98264.16
2024-05-09T13:28:33.618Z,98263.31
2024-05-09T13:31:05.943Z,98253.88
2024-05-09T13:33:35.713Z,98249.59
2024-05-09T13:36:06.475Z,98250.66
2024-05-09T13:38:35.963Z,98253.16
2024-05-09T13:41:05.502Z,98249.91
2024-05-09T13:43:35.206Z,98250.50
2024-05-09T13:46:07.651Z,98255.38
2024-05-09T13:48:37.365Z,98243.19
2024-05-09T13:51:06.966Z,98234.78
2024-05-09T13:53:36.525Z,98238.56
2024-05-09T13:56:06.243Z,98239.66
2024-05-09T13:58:36.027Z,98240.09
2024-05-09T14:01:08.346Z,98241.16
2024-05-09T14:03:38.071Z,98231.13
2024-05-09T14:06:11.293Z,98230.50
2024-05-09T14:08:42.631Z,98222.06
2024-05-09T14:11:12.240Z,98214.66
2024-05-09T14:13:41.943Z,98212.94
2024-05-09T14:16:14.545Z,98213.97
2024-05-09T14:18:44.285Z,98208.00
2024-05-09T14:21:14.042Z,98211.22
2024-05-09T14:23:43.853Z,98210.41
2024-05-09T14:26:14.118Z,98209.03
2024-05-09T14:28:44.030Z,98209.53
2024-05-09T14:31:16.348Z,98207.34
2024-05-09T14:33:46.106Z,98210.06
2024-05-09T14:36:15.695Z,98203.59
2024-05-09T14:38:45.198Z,98198.75
2024-05-09T14:41:14.786Z,98199.31
2024-05-09T14:43:44.339Z,98192.84
2024-05-09T14:46:16.793Z,98189.63
2024-05-09T14:48:46.575Z,98187.25
2024-05-09T14:51:16.631Z,98184.03
2024-05-09T14:53:46.352Z,98179.44
2024-05-09T14:56:15.980Z,98180.03
2024-05-09T14:58:45.679Z,98180.31
2024-05-09T15:01:20.551Z,98183.34
2024-05-09T15:03:50.248Z,98180.09
2024-05-09T15:06:19.988Z,98181.19
2024-05-09T15:08:54.698Z,98176.56
2024-05-09T15:11:24.361Z,98177.66
2024-05-09T15:13:53.849Z,98172.50
2024-05-09T15:16:26.268Z,98165.75
2024-05-09T15:18:56.199Z,98163.88
2024-05-09T15:21:25.941Z,98159.81
2024-05-09T15:23:55.440Z,98159.06
2024-05-09T15:26:27.981Z,98155.59
2024-05-09T15:28:57.437Z,98160.50
2024-05-09T15:31:29.696Z,98157.50
2024-05-09T15:33:59.305Z,98156.34
2024-05-09T15:36:28.898Z,98155.78
2024-05-09T15:38:58.443Z,98147.63
2024-05-09T15:41:27.950Z,98160.63
2024-05-09T15:43:57.407Z,98154.34
2024-05-09T15:46:29.787Z,98152.97
2024-05-09T15:48:59.526Z,98159.22
2024-05-09T15:51:29.122Z,98145.88
2024-05-09T15:53:58.539Z,98149.13
2024-05-09T15:56:28.200Z,98145.00
2024-05-09T15:58:58.557Z,98141.47
2024-05-09T16:01:31.071Z,98135.78
2024-05-09T16:04:00.935Z,98148.47
2024-05-09T16:06:30.793Z,98149.81
2024-05-09T16:09:00.349Z,98138.69
2024-05-09T16:11:29.828Z,98137.63
2024-05-09T16:13:59.292Z,98141.13
2024-05-09T16:16:31.706Z,98140.84
2024-05-09T16:19:01.873Z,98142.53
2024-05-09T16:21:31.651Z,98137.66
2024-05-09T16:24:01.257Z,98145.88
2024-05-09T16:26:30.787Z,98143.72
2024-05-09T16:29:00.338Z,98130.72
2024-05-09T16:31:32.652Z,98130.53
2024-05-09T16:34:02.551Z,98130.53
2024-05-09T16:36:32.653Z,98123.78
2024-05-09T16:39:02.256Z,98131.91
2024-05-09T16:41:31.802Z,98136.00
2024-05-09T16:44:01.785Z,98127.06
2024-05-09T16:46:34.072Z,98127.06
2024-05-09T16:49:03.751Z,98131.94
2024-05-09T16:51:33.330Z,98128.44
2024-05-09T16:54:02.904Z,98135.25
2024-05-09T16:56:32.436Z,98121.97
2024-05-09T16:59:02.054Z,98129.06
2024-05-09T17:01:34.334Z,98127.22
2024-05-09T17:04:04.271Z,98118.03
2024-05-09T17:06:34.228Z,98114.75
2024-05-09T17:09:08.563Z,98129.97
2024-05-09T17:11:41.420Z,98117.53
2024-05-09T17:14:10.973Z,98125.94
2024-05-09T17:16:43.208Z,98118.09
2024-05-09T17:19:12.882Z,98127.31
2024-05-09T17:21:42.447Z,98126.78
2024-05-09T17:24:11.990Z,98125.19
2024-05-09T17:26:41.589Z,98132.53
2024-05-09T17:29:12.464Z,98124.66
2024-05-09T17:31:44.868Z,98130.88
2024-05-09T17:34:14.687Z,98131.16
2024-05-09T17:36:44.453Z,98125.50
2024-05-09T17:39:14.098Z,98137.69
2024-05-09T17:41:43.765Z,98134.47
2024-05-09T17:44:13.255Z,98136.63
2024-05-09T17:46:45.697Z,98140.44
2024-05-09T17:49:15.328Z,98138.00
2024-05-09T17:51:51.199Z,98137.19
2024-05-09T17:54:20.923Z,98139.41
2024-05-09T17:56:51.048Z,98139.69
2024-05-09T17:59:20.603Z,98132.09
2024-05-09T18:01:52.940Z,98136.72
2024-05-09T18:04:22.618Z,98140.53
2024-05-09T18:06:52.439Z,98135.66
2024-05-09T18:09:22.108Z,98135.94
2024-05-09T18:11:51.712Z,98143.28
2024-05-09T18:14:21.234Z,98137.31
2024-05-09T18:16:53.662Z,98132.19
2024-05-09T18:19:23.353Z,98140.31
2024-05-09T18:21:54.040Z,98136.81
2024-05-09T18:24:24.754Z,98136.00
2024-05-09T18:26:54.472Z,98135.19
2024-05-09T18:29:24.100Z,98137.09
2024-05-09T18:31:56.420Z,98137.09
2024-05-09T18:34:26.123Z,98138.16
2024-05-09T18:36:55.783Z,98144.41
2024-05-09T18:39:25.307Z,98143.56
2024-05-09T18:41:54.946Z,98142.78
2024-05-09T18:44:24.680Z,98152.53
2024-05-09T18:46:57.236Z,98150.09
2024-05-09T18:49:26.977Z,98150.09
2024-05-09T18:51:56.661Z,98145.50
2024-05-09T18:54:26.140Z,98148.22
2024-05-09T18:56:56.037Z,98150.38
2024-05-09T18:59:25.633Z,98157.44
2024-05-09T19:01:57.966Z,98144.16
2024-05-09T19:04:27.687Z,98157.44
2024-05-09T19:06:57.524Z,98160.94
2024-05-09T19:09:27.059Z,98155.78
2024-05-09T19:11:57.370Z,98162.53
2024-05-09T19:14:27.000Z,98157.44
2024-05-09T19:16:59.304Z,98164.47
2024-05-09T19:19:28.963Z,98167.16
2024-05-09T19:21:58.851Z,98175.28
2024-05-09T19:24:28.459Z,98178.00
2024-05-09T19:26:58.319Z,98174.47
2024-05-09T19:29:27.852Z,98182.88
2024-05-09T19:32:00.387Z,98179.38
2024-05-09T19:34:30.094Z,98186.13
2024-05-09T19:37:01.456Z,98194.75
2024-05-09T19:39:31.243Z,98195.31
2024-05-09T19:42:00.806Z,98199.88
2024-05-09T19:44:30.352Z,98196.06
2024-05-09T19:47:02.726Z,98194.75
2024-05-09T19:49:32.368Z,98195.81
2024-05-09T19:52:02.009Z,98194.19
2024-05-09T19:54:31.558Z,98198.00
2024-05-09T19:57:01.090Z,98192.59
2024-05-09T19:59:30.618Z,98196.41
2024-05-09T20:02:03.207Z,98201.81
2024-05-09T20:04:33.130Z,98194.75
2024-05-09T20:07:02.904Z,98203.97
2024-05-09T20:09:32.411Z,98200.44
2024-05-09T20:12:02.004Z,98203.97
2024-05-09T20:14:31.997Z,98209.41
2024-05-09T20:17:04.400Z,98209.41
2024-05-09T20:19:34.062Z,98201.56
2024-05-09T20:22:03.837Z,98210.78
2024-05-09T20:24:33.395Z,98204.53
2024-05-09T20:27:03.032Z,98211.59
2024-05-09T20:29:32.549Z,98217.00
2024-05-09T20:32:05.347Z,98209.97
2024-05-09T20:34:34.899Z,98216.19
2024-05-09T20:37:04.824Z,98203.75
2024-05-09T20:39:34.462Z,98209.97
2024-05-09T20:42:04.573Z,98207.25
2024-05-09T20:44:34.241Z,98206.19
2024-05-09T20:47:06.452Z,98205.34
2024-05-09T20:49:36.013Z,98209.97
2024-05-09T20:52:06.058Z,98205.34
2024-05-09T20:54:35.863Z,98208.88
2024-05-09T20:57:06.522Z,98207.78
2024-05-09T20:59:37.828Z,98214.81
2024-05-09T21:02:10.246Z,98209.41
2024-05-09T21:04:40.133Z,98206.69
2024-05-09T21:07:09.808Z,98200.19
2024-05-09T21:09:39.385Z,98193.97
2024-05-09T21:12:09.183Z,98195.59
2024-05-09T21:14:38.800Z,98194.75
2024-05-09T21:17:11.195Z,98196.69
2024-05-09T21:19:40.887Z,98201.00
2024-05-09T21:22:10.417Z,98194.75
2024-05-09T21:24:39.906Z,98200.19
2024-05-09T21:27:09.375Z,98197.47
2024-05-09T21:29:38.901Z,98189.94
2024-05-09T21:32:11.206Z,98192.06
2024-05-09T21:34:40.803Z,98194.75
2024-05-09T21:37:10.423Z,98198.28
2024-05-09T21:39:39.993Z,98193.16
2024-05-09T21:42:09.720Z,98193.16
2024-05-09T21:44:39.213Z,98198.56
2024-05-09T21:47:11.611Z,98197.75
2024-05-09T21:49:41.327Z,98189.94
2024-05-09T21:52:11.073Z,98193.16
2024-05-09T21:54:40.784Z,98192.34
2024-05-09T21:57:11.124Z,98191.53
2024-05-09T21:59:42.008Z,98191.53
2024-05-09T22:02:14.928Z,98183.41
2024-05-09T22:04:44.744Z,98188.28
2024-05-09T22:07:14.538Z,98185.59
2024-05-09T22:09:45.632Z,98186.69
2024-05-09T22:12:15.209Z,98188.28
2024-05-09T22:14:44.773Z,98187.50
2024-05-09T22:17:16.969Z,98192.91
2024-05-09T22:19:46.849Z,98192.91
2024-05-09T22:22:16.761Z,98195.91
2024-05-09T22:24:46.389Z,98194.25
2024-05-09T22:27:15.927Z,98194.25
2024-05-09T22:29:45.434Z,98196.69
2024-05-09T22:32:18.118Z,98193.19
2024-05-09T22:34:47.740Z,98204.03
2024-05-09T22:37:17.290Z,98195.91
2024-05-09T22:39:46.874Z,98193.75
2024-05-09T22:42:16.377Z,98193.47
2024-05-09T22:44:45.869Z,98187.22
2024-05-09T22:47:17.988Z,98188.84
2024-05-09T22:49:47.476Z,98191.56
2024-05-09T22:52:17.061Z,98196.69
2024-05-09T22:54:46.603Z,98195.91
2024-05-09T22:57:16.119Z,98195.91
2024-05-09T22:59:45.684Z,98191.28
2024-05-09T23:02:17.995Z,98191.28
2024-05-09T23:04:48.116Z,98196.69
2024-05-09T23:07:18.006Z,98197.50
2024-05-09T23:09:47.716Z,98195.91
2024-05-09T23:12:17.863Z,98197.50
2024-05-09T23:14:47.393Z,98194.25
2024-05-09T23:17:19.640Z,98207.25
2024-05-09T23:19:49.244Z,98198.06
2024-05-09T23:22:18.998Z,98192.66
2024-05-09T23:24:48.749Z,98198.34
2024-05-09T23:27:18.387Z,98194.81
2024-05-09T23:29:50.539Z,98194.25
2024-05-09T23:32:23.023Z,98191.28
2024-05-09T23:34:52.648Z,98189.66
2024-05-09T23:37:22.521Z,98191.28
2024-05-09T23:39:52.226Z,98188.06
2024-05-09T23:42:21.922Z,98184.03
2024-05-09T23:44:53.607Z,98186.97
2024-05-09T23:47:25.783Z,98178.00
2024-05-09T23:49:55.190Z,98188.84
2024-05-09T23:52:24.861Z,98181.03
2024-05-09T23:54:54.563Z,98181.81
2024-05-09T23:57:24.050Z,98182.38
2024-05-09T23:59:53.920Z,98181.81
